createdAt,value
2019-01-11T00:00:57.516Z,94.02
2019-01-11T00:01:57.515Z,94.02
2019-01-11T00:02:57.517Z,94.27
2019-01-11T00:03:57.533Z,93.08
2019-01-11T00:04:57.489Z,93.18
2019-01-11T00:05:57.467Z,93.60
2019-01-11T00:06:57.476Z,93.33
2019-01-11T00:07:57.470Z,93.02
2019-01-11T00:08:57.436Z,93.33
2019-01-11T00:09:57.419Z,93.65
2019-01-11T00:10:57.402Z,94.37
2019-01-11T00:11:57.394Z,93.75
2019-01-11T00:12:57.390Z,93.75
2019-01-11T00:13:57.399Z,93.96
2019-01-11T00:14:57.368Z,93.81
2019-01-11T00:15:57.377Z,93.40
2019-01-11T00:16:57.346Z,93.60
2019-01-11T00:17:57.330Z,93.71
2019-01-11T00:18:57.326Z,93.91
2019-01-11T00:20:03.358Z,94.06
2019-01-11T00:20:58.335Z,93.81
2019-01-11T00:21:57.297Z,93.33
2019-01-11T00:22:57.316Z,93.29
2019-01-11T00:23:57.266Z,93.50
2019-01-11T00:24:57.252Z,93.18
2019-01-11T00:25:57.246Z,93.40
2019-01-11T00:26:57.256Z,93.71
2019-01-11T00:27:57.228Z,93.60
2019-01-11T00:28:57.214Z,94.23
2019-01-11T00:29:57.197Z,93.81
2019-01-11T00:30:57.188Z,93.60
2019-01-11T00:31:57.210Z,94.23
2019-01-11T00:32:57.165Z,94.23
2019-01-11T00:33:57.807Z,94.33
2019-01-11T00:34:57.149Z,94.33
2019-01-11T00:35:57.160Z,94.23
2019-01-11T00:36:57.123Z,94.23
2019-01-11T00:37:57.104Z,93.81
2019-01-11T00:38:57.099Z,93.60
2019-01-11T00:39:57.086Z,93.60
2019-01-11T00:40:57.076Z,93.29
2019-01-11T00:41:57.093Z,92.97
2019-01-11T00:42:57.059Z,93.18
2019-01-11T00:43:57.848Z,93.18
2019-01-11T00:44:57.033Z,93.60
2019-01-11T00:45:57.035Z,93.18
2019-01-11T00:46:57.035Z,93.08
2019-01-11T00:47:57.003Z,93.18
2019-01-11T00:48:56.987Z,93.81
2019-01-11T00:49:56.974Z,94.33
2019-01-11T00:50:56.975Z,93.81
2019-01-11T00:51:56.956Z,93.91
2019-01-11T00:52:56.972Z,94.23
2019-01-11T00:53:56.934Z,94.02
2019-01-11T00:54:56.921Z,93.81
2019-01-11T00:55:56.908Z,93.81
2019-01-11T00:56:56.909Z,93.85
2019-01-11T00:57:56.914Z,94.27
2019-01-11T00:58:56.884Z,94.37
2019-01-11T00:59:57.009Z,94.17
2019-01-11T01:00:56.855Z,95.10
2019-01-11T01:01:56.850Z,94.69
2019-01-11T01:02:56.893Z,94.69
2019-01-11T01:03:56.824Z,95.00
2019-01-11T01:04:56.820Z,95.52
2019-01-11T01:05:56.830Z,95.21
2019-01-11T01:06:56.793Z,95.21
2019-01-11T01:07:56.788Z,95.10
2019-01-11T01:08:56.792Z,95.21
2019-01-11T01:09:56.769Z,95.62
2019-01-11T01:10:56.752Z,95.42
2019-01-11T01:11:56.736Z,95.52
2019-01-11T01:12:56.721Z,95.62
2019-01-11T01:13:56.720Z,95.62
2019-01-11T01:14:56.731Z,95.42
2019-01-11T01:15:56.709Z,95.62
2019-01-11T01:16:56.682Z,95.83
2019-01-11T01:17:56.686Z,95.42
2019-01-11T01:18:56.671Z,95.52
2019-01-11T01:19:56.651Z,95.42
2019-01-11T01:20:56.683Z,95.62
2019-01-11T01:21:56.634Z,96.15
2019-01-11T01:22:56.613Z,95.83
2019-01-11T01:23:56.648Z,95.94
2019-01-11T01:24:56.591Z,95.83
2019-01-11T01:25:56.579Z,95.83
2019-01-11T01:26:56.619Z,96.15
2019-01-11T01:27:56.559Z,96.04
2019-01-11T01:28:56.554Z,96.46
2019-01-11T01:29:56.532Z,96.36
2019-01-11T01:30:56.527Z,96.36
2019-01-11T01:31:56.542Z,96.36
2019-01-11T01:32:56.503Z,96.36
2019-01-11T01:33:56.499Z,96.36
2019-01-11T01:34:56.488Z,96.36
2019-01-11T01:35:56.470Z,96.15
2019-01-11T01:36:56.487Z,96.36
2019-01-11T01:37:56.448Z,96.56
2019-01-11T01:38:56.437Z,96.46
2019-01-11T01:39:56.562Z,96.04
2019-01-11T01:40:56.422Z,96.04
2019-01-11T01:41:56.402Z,96.15
2019-01-11T01:42:56.423Z,96.11
2019-01-11T01:43:56.391Z,96.42
2019-01-11T01:44:56.373Z,96.21
2019-01-11T01:45:56.358Z,95.79
2019-01-11T01:46:56.357Z,96.21
2019-01-11T01:47:56.338Z,96.21
2019-01-11T01:48:56.359Z,96.31
2019-01-11T01:49:56.324Z,96.31
2019-01-11T01:50:56.304Z,96.46
2019-01-11T01:51:56.303Z,96.00
2019-01-11T01:52:56.292Z,96.31
2019-01-11T01:53:56.307Z,96.31
2019-01-11T01:54:56.264Z,96.42
2019-01-11T01:55:56.385Z,96.00
2019-01-11T01:56:56.245Z,96.00
2019-01-11T01:57:56.228Z,96.00
2019-01-11T01:58:56.234Z,96.00
2019-01-11T01:59:56.215Z,96.31
2019-01-11T02:00:56.195Z,96.21
2019-01-11T02:01:56.232Z,96.52
2019-01-11T02:02:56.175Z,96.52
2019-01-11T02:03:56.171Z,96.42
2019-01-11T02:04:56.170Z,96.42
2019-01-11T02:05:56.139Z,95.79
2019-01-11T02:06:56.145Z,96.42
2019-01-11T02:07:56.143Z,96.11
2019-01-11T02:08:56.119Z,96.31
2019-01-11T02:09:56.113Z,96.21
2019-01-11T02:10:56.083Z,96.16
2019-01-11T02:11:56.168Z,96.31
2019-01-11T02:12:56.064Z,96.37
2019-01-11T02:13:56.088Z,96.26
2019-01-11T02:14:56.041Z,96.37
2019-01-11T02:15:56.035Z,96.16
2019-01-11T02:16:56.046Z,96.00
2019-01-11T02:17:56.006Z,96.31
2019-01-11T02:18:56.014Z,96.21
2019-01-11T02:19:56.062Z,96.42
2019-01-11T02:20:55.974Z,96.31
2019-01-11T02:21:55.968Z,95.89
2019-01-11T02:22:55.973Z,96.00
2019-01-11T02:23:55.979Z,95.89
2019-01-11T02:24:55.945Z,95.58
2019-01-11T02:25:55.918Z,95.58
2019-01-11T02:26:55.912Z,96.52
2019-01-11T02:27:55.934Z,96.21
2019-01-11T02:28:55.886Z,96.42
2019-01-11T02:29:55.895Z,96.00
2019-01-11T02:30:55.873Z,96.00
2019-01-11T02:31:55.855Z,96.11
2019-01-11T02:32:55.872Z,95.68
2019-01-11T02:33:55.835Z,96.00
2019-01-11T02:34:55.854Z,96.21
2019-01-11T02:35:55.844Z,96.42
2019-01-11T02:36:55.801Z,96.42
2019-01-11T02:37:55.788Z,96.73
2019-01-11T02:38:55.864Z,96.94
2019-01-11T02:39:55.777Z,96.62
2019-01-11T02:40:55.796Z,97.14
2019-01-11T02:41:55.753Z,97.04
2019-01-11T02:42:55.732Z,97.25
2019-01-11T02:43:55.722Z,96.73
2019-01-11T02:44:55.731Z,96.83
2019-01-11T02:45:55.700Z,96.94
2019-01-11T02:46:55.693Z,97.04
2019-01-11T02:47:55.680Z,96.73
2019-01-11T02:48:55.667Z,97.04
2019-01-11T02:49:55.664Z,96.94
2019-01-11T02:50:55.666Z,96.88
2019-01-11T02:51:55.665Z,96.94
2019-01-11T02:52:55.627Z,96.73
2019-01-11T02:53:55.618Z,96.73
2019-01-11T02:54:55.603Z,97.14
2019-01-11T02:55:55.616Z,96.98
2019-01-11T02:56:55.602Z,96.94
2019-01-11T02:57:55.568Z,97.04
2019-01-11T02:58:55.557Z,97.25
2019-01-11T02:59:55.556Z,97.04
2019-01-11T03:00:55.542Z,97.46
2019-01-11T03:01:55.547Z,97.04
2019-01-11T03:02:55.559Z,96.94
2019-01-11T03:03:55.508Z,96.94
2019-01-11T03:04:55.499Z,96.94
2019-01-11T03:05:55.489Z,97.40
2019-01-11T03:06:55.470Z,97.46
2019-01-11T03:07:55.456Z,97.67
2019-01-11T03:08:55.468Z,97.56
2019-01-11T03:09:55.440Z,97.67
2019-01-11T03:10:55.428Z,97.77
2019-01-11T03:11:55.421Z,97.25
2019-01-11T03:12:55.595Z,97.77
2019-01-11T03:13:55.408Z,97.46
2019-01-11T03:14:55.383Z,97.35
2019-01-11T03:15:55.431Z,97.04
2019-01-11T03:16:55.361Z,97.25
2019-01-11T03:17:55.346Z,97.14
2019-01-11T03:18:55.364Z,97.40
2019-01-11T03:19:55.350Z,97.46
2019-01-11T03:20:55.356Z,97.35
2019-01-11T03:21:55.306Z,97.88
2019-01-11T03:22:55.294Z,97.31
2019-01-11T03:23:55.284Z,97.04
2019-01-11T03:24:55.274Z,97.00
2019-01-11T03:25:55.264Z,97.25
2019-01-11T03:26:55.271Z,97.25
2019-01-11T03:27:55.270Z,97.46
2019-01-11T03:28:55.240Z,97.35
2019-01-11T03:29:55.219Z,97.04
2019-01-11T03:30:55.238Z,97.35
2019-01-11T03:31:55.456Z,97.46
2019-01-11T03:32:55.184Z,97.72
2019-01-11T03:33:55.187Z,97.88
2019-01-11T03:34:55.167Z,97.83
2019-01-11T03:35:55.172Z,97.31
2019-01-11T03:36:55.169Z,97.31
2019-01-11T03:37:55.152Z,97.52
2019-01-11T03:38:55.122Z,97.10
2019-01-11T03:39:55.118Z,97.10
2019-01-11T03:40:55.097Z,97.41
2019-01-11T03:41:55.113Z,97.41
2019-01-11T03:42:55.076Z,97.31
2019-01-11T03:43:55.077Z,97.20
2019-01-11T03:44:55.053Z,97.20
2019-01-11T03:45:55.042Z,97.41
2019-01-11T03:46:55.031Z,97.72
2019-01-11T03:47:55.084Z,97.62
2019-01-11T03:48:55.006Z,97.62
2019-01-11T03:49:55.177Z,97.62
2019-01-11T03:50:55.031Z,97.31
2019-01-11T03:51:54.970Z,97.31
2019-01-11T03:52:54.999Z,97.31
2019-01-11T03:53:54.949Z,97.62
2019-01-11T03:54:54.936Z,97.72
2019-01-11T03:55:54.923Z,97.52
2019-01-11T03:56:54.916Z,97.41
2019-01-11T03:57:54.905Z,97.41
2019-01-11T03:58:54.931Z,97.72
2019-01-11T03:59:54.890Z,97.31
2019-01-11T04:00:54.879Z,97.62
2019-01-11T04:01:54.882Z,97.72
2019-01-11T04:02:54.850Z,97.31
2019-01-11T04:03:54.858Z,97.62
2019-01-11T04:04:54.828Z,97.20
2019-01-11T04:05:54.829Z,97.41
2019-01-11T04:06:54.838Z,97.00
2019-01-11T04:07:54.791Z,97.62
2019-01-11T04:08:55.368Z,97.41
2019-01-11T04:09:54.777Z,97.62
2019-01-11T04:10:54.763Z,97.72
2019-01-11T04:11:54.792Z,97.72
2019-01-11T04:12:54.779Z,97.94
2019-01-11T04:13:54.733Z,97.72
2019-01-11T04:14:54.768Z,97.83
2019-01-11T04:15:54.707Z,97.83
2019-01-11T04:16:54.698Z,97.41
2019-01-11T04:17:54.721Z,97.58
2019-01-11T04:18:54.681Z,97.52
2019-01-11T04:19:54.668Z,97.89
2019-01-11T04:20:54.656Z,97.83
2019-01-11T04:21:54.642Z,97.47
2019-01-11T04:22:54.661Z,97.52
2019-01-11T04:23:54.623Z,97.68
2019-01-11T04:24:54.610Z,97.41
2019-01-11T04:25:54.603Z,97.58
2019-01-11T04:26:54.588Z,97.37
2019-01-11T04:27:54.691Z,97.27
2019-01-11T04:28:54.560Z,97.83
2019-01-11T04:29:54.555Z,97.94
2019-01-11T04:30:55.377Z,97.47
2019-01-11T04:31:54.540Z,97.47
2019-01-11T04:32:54.552Z,97.47
2019-01-11T04:33:54.544Z,97.58
2019-01-11T04:34:54.506Z,97.58
2019-01-11T04:35:54.512Z,97.78
2019-01-11T04:36:54.472Z,97.47
2019-01-11T04:37:54.491Z,97.78
2019-01-11T04:38:54.464Z,97.78
2019-01-11T04:39:54.467Z,97.58
2019-01-11T04:40:54.455Z,97.68
2019-01-11T04:41:54.420Z,97.58
2019-01-11T04:42:54.410Z,97.78
2019-01-11T04:43:54.419Z,97.78
2019-01-11T04:44:54.388Z,98.31
2019-01-11T04:45:54.375Z,98.31
2019-01-11T04:46:54.397Z,98.20
2019-01-11T04:47:54.357Z,98.41
2019-01-11T04:48:54.342Z,97.89
2019-01-11T04:49:54.336Z,98.10
2019-01-11T04:50:54.326Z,97.99
2019-01-11T04:51:54.391Z,98.10
2019-01-11T04:52:54.327Z,98.31
2019-01-11T04:53:54.316Z,98.20
2019-01-11T04:54:54.320Z,98.31
2019-01-11T04:55:54.295Z,98.10
2019-01-11T04:56:54.278Z,97.99
2019-01-11T04:57:54.269Z,97.99
2019-01-11T04:58:54.236Z,97.99
2019-01-11T04:59:54.225Z,98.41
2019-01-11T05:00:54.219Z,98.41
2019-01-11T05:01:54.225Z,97.78
2019-01-11T05:02:54.192Z,98.26
2019-01-11T05:03:54.203Z,97.78
2019-01-11T05:04:54.195Z,97.99
2019-01-11T05:05:54.158Z,97.89
2019-01-11T05:06:54.142Z,98.47
2019-01-11T05:07:54.873Z,98.36
2019-01-11T05:08:54.142Z,98.47
2019-01-11T05:09:54.111Z,98.31
2019-01-11T05:10:54.121Z,98.26
2019-01-11T05:11:54.091Z,98.52
2019-01-11T05:12:54.080Z,98.20
2019-01-11T05:13:54.124Z,98.26
2019-01-11T05:14:54.057Z,97.95
2019-01-11T05:15:54.053Z,98.31
2019-01-11T05:16:54.036Z,98.16
2019-01-11T05:17:54.026Z,97.85
2019-01-11T05:18:54.010Z,98.05
2019-01-11T05:19:54.017Z,98.05
2019-01-11T05:20:54.014Z,98.16
2019-01-11T05:21:53.979Z,98.26
2019-01-11T05:22:53.973Z,97.95
2019-01-11T05:23:53.963Z,98.16
2019-01-11T05:24:53.982Z,98.26
2019-01-11T05:25:53.934Z,98.26
2019-01-11T05:26:54.003Z,98.47
2019-01-11T05:27:53.919Z,98.16
2019-01-11T05:28:53.903Z,98.20
2019-01-11T05:29:53.893Z,98.26
2019-01-11T05:30:53.883Z,98.72
2019-01-11T05:31:54.876Z,98.78
2019-01-11T05:32:53.889Z,98.68
2019-01-11T05:33:53.887Z,98.68
2019-01-11T05:34:53.914Z,98.57
2019-01-11T05:35:53.833Z,98.57
2019-01-11T05:36:53.814Z,98.57
2019-01-11T05:37:53.806Z,98.78
2019-01-11T05:38:53.798Z,98.57
2019-01-11T05:39:53.805Z,98.68
2019-01-11T05:40:53.771Z,98.68
2019-01-11T05:41:53.762Z,98.68
2019-01-11T05:42:53.752Z,98.68
2019-01-11T05:43:53.738Z,98.57
2019-01-11T05:44:53.723Z,98.57
2019-01-11T05:45:53.755Z,98.78
2019-01-11T05:46:53.701Z,98.52
2019-01-11T05:47:53.740Z,98.57
2019-01-11T05:48:53.688Z,98.83
2019-01-11T05:49:53.680Z,99.20
2019-01-11T05:50:53.691Z,99.20
2019-01-11T05:51:53.678Z,99.14
2019-01-11T05:52:53.653Z,98.99
2019-01-11T05:53:53.627Z,98.88
2019-01-11T05:54:53.615Z,98.99
2019-01-11T05:55:53.607Z,99.35
2019-01-11T05:56:53.622Z,99.20
2019-01-11T05:57:53.584Z,99.72
2019-01-11T05:59:00.661Z,99.30
2019-01-11T05:59:53.564Z,99.51
2019-01-11T06:00:53.572Z,99.76
2019-01-11T06:01:53.539Z,99.72
2019-01-11T06:02:53.560Z,99.62
2019-01-11T06:03:53.650Z,99.51
2019-01-11T06:04:53.522Z,99.45
2019-01-11T06:05:53.493Z,99.55
2019-01-11T06:06:53.492Z,99.45
2019-01-11T06:07:53.479Z,99.35
2019-01-11T06:08:53.511Z,99.51
2019-01-11T06:09:53.457Z,99.41
2019-01-11T06:10:53.446Z,99.35
2019-01-11T06:11:53.437Z,99.72
2019-01-11T06:12:53.416Z,99.76
2019-01-11T06:13:53.433Z,99.51
2019-01-11T06:14:53.399Z,99.93
2019-01-11T06:15:53.405Z,99.99
2019-01-11T06:16:53.373Z,99.99
2019-01-11T06:17:53.370Z,99.99
2019-01-11T06:18:53.398Z,99.93
2019-01-11T06:19:53.471Z,99.99
2019-01-11T06:20:53.330Z,99.99
2019-01-11T06:21:53.329Z,99.93
2019-01-11T06:22:53.328Z,99.99
2019-01-11T06:23:53.307Z,99.99
2019-01-11T06:24:53.323Z,99.99
2019-01-11T06:25:53.288Z,99.82
2019-01-11T06:26:53.271Z,99.82
2019-01-11T06:27:53.317Z,99.72
2019-01-11T06:28:53.248Z,99.93
2019-01-11T06:29:53.307Z,99.93
2019-01-11T06:30:53.220Z,99.93
2019-01-11T06:31:53.215Z,99.99
2019-01-11T06:32:53.208Z,99.99
2019-01-11T06:33:53.194Z,99.99
2019-01-11T06:34:53.180Z,99.99
2019-01-11T06:35:53.216Z,99.99
2019-01-11T06:36:53.173Z,99.99
2019-01-11T06:37:53.150Z,99.99
2019-01-11T06:38:53.153Z,99.99
2019-01-11T06:39:53.127Z,99.99
2019-01-11T06:40:53.116Z,99.99
2019-01-11T06:41:53.222Z,99.99
2019-01-11T06:42:53.324Z,99.99
2019-01-11T06:43:53.085Z,99.99
2019-01-11T06:44:53.089Z,99.99
2019-01-11T06:45:53.078Z,99.99
2019-01-11T06:46:53.071Z,99.99
2019-01-11T06:47:53.236Z,99.99
2019-01-11T06:48:53.027Z,99.99
2019-01-11T06:49:53.021Z,99.99
2019-01-11T06:50:53.510Z,99.99
2019-01-11T06:51:53.007Z,99.99
2019-01-11T06:52:53.041Z,99.99
2019-01-11T06:53:52.969Z,99.99
2019-01-11T06:54:52.957Z,99.99
2019-01-11T06:55:52.960Z,99.99
2019-01-11T06:56:52.966Z,99.99
2019-01-11T06:57:52.967Z,99.99
2019-01-11T06:58:52.917Z,99.99
2019-01-11T06:59:52.986Z,99.99
2019-01-11T07:00:52.931Z,99.99
2019-01-11T07:01:52.966Z,99.99
2019-01-11T07:02:52.965Z,99.99
2019-01-11T07:03:53.206Z,99.99
2019-01-11T07:04:52.935Z,99.99
2019-01-11T07:05:52.862Z,99.99
2019-01-11T07:06:52.829Z,99.99
2019-01-11T07:07:52.852Z,99.99
2019-01-11T07:08:52.810Z,99.99
2019-01-11T07:09:52.840Z,99.99
2019-01-11T07:10:52.843Z,99.99
2019-01-11T07:11:52.764Z,99.99
2019-01-11T07:12:52.775Z,99.99
2019-01-11T07:13:52.772Z,99.99
2019-01-11T07:14:52.733Z,99.99
2019-01-11T07:15:52.798Z,99.99
2019-01-11T07:16:52.714Z,99.99
2019-01-11T07:17:52.707Z,99.99
2019-01-11T07:18:52.694Z,99.99
2019-01-11T07:19:52.702Z,99.99
2019-01-11T07:20:52.715Z,99.99
2019-01-11T07:21:52.679Z,99.99
2019-01-11T07:22:52.662Z,99.99
2019-01-11T07:23:52.641Z,99.99
2019-01-11T07:24:52.626Z,99.99
2019-01-11T07:25:52.641Z,99.99
2019-01-11T07:26:52.622Z,99.99
2019-01-11T07:27:52.592Z,99.99
2019-01-11T07:28:52.586Z,99.99
2019-01-11T07:29:52.578Z,99.99
2019-01-11T07:30:52.566Z,99.99
2019-01-11T07:31:52.562Z,99.99
2019-01-11T07:32:52.572Z,99.99
2019-01-11T07:33:52.606Z,99.99
2019-01-11T07:34:52.518Z,99.99
2019-01-11T07:35:52.505Z,99.99
2019-01-11T07:36:52.555Z,99.99
2019-01-11T07:37:52.541Z,99.99
2019-01-11T07:38:52.472Z,99.99
2019-01-11T07:39:52.461Z,99.99
2019-01-11T07:40:52.452Z,99.99
2019-01-11T07:41:52.452Z,99.99
2019-01-11T07:42:52.432Z,99.99
2019-01-11T07:43:52.446Z,99.99
2019-01-11T07:44:52.408Z,99.99
2019-01-11T07:45:52.401Z,99.99
2019-01-11T07:46:52.400Z,99.99
2019-01-11T07:47:52.452Z,99.99
2019-01-11T07:48:52.363Z,99.99
2019-01-11T07:49:52.369Z,99.99
2019-01-11T07:50:52.345Z,99.99
2019-01-11T07:51:52.382Z,99.99
2019-01-11T07:52:52.477Z,99.99
2019-01-11T07:53:52.344Z,99.99
2019-01-11T07:54:52.314Z,99.99
2019-01-11T07:55:52.309Z,99.99
2019-01-11T07:56:52.280Z,99.99
2019-01-11T07:57:52.284Z,99.99
2019-01-11T07:58:52.255Z,99.99
2019-01-11T07:59:52.271Z,99.99
2019-01-11T08:00:52.237Z,99.99
2019-01-11T08:01:52.231Z,99.99
2019-01-11T08:02:52.283Z,99.99
2019-01-11T08:03:52.200Z,99.99
2019-01-11T08:04:52.210Z,99.99
2019-01-11T08:05:52.184Z,99.99
2019-01-11T08:06:52.179Z,99.99
2019-01-11T08:07:52.158Z,99.99
2019-01-11T08:08:52.225Z,99.99
2019-01-11T08:09:52.130Z,99.99
2019-01-11T08:10:52.145Z,99.99
2019-01-11T08:11:52.148Z,99.99
2019-01-11T08:12:52.098Z,99.99
2019-01-11T08:13:52.111Z,99.99
2019-01-11T08:14:52.081Z,99.99
2019-01-11T08:15:52.115Z,99.99
2019-01-11T08:16:52.078Z,99.99
2019-01-11T08:17:52.052Z,99.99
2019-01-11T08:18:52.039Z,99.99
2019-01-11T08:19:52.027Z,99.99
2019-01-11T08:20:56.218Z,99.99
2019-01-11T08:21:52.027Z,99.99
2019-01-11T08:22:52.017Z,99.99
2019-01-11T08:23:52.001Z,99.99
2019-01-11T08:24:51.993Z,99.99
2019-01-11T08:25:51.967Z,99.99
2019-01-11T08:26:51.948Z,99.99
2019-01-11T08:27:51.950Z,99.99
2019-01-11T08:28:51.923Z,99.99
2019-01-11T08:29:52.071Z,99.99
2019-01-11T08:30:51.918Z,99.99
2019-01-11T08:31:51.893Z,99.99
2019-01-11T08:32:51.926Z,99.99
2019-01-11T08:33:51.868Z,99.99
2019-01-11T08:34:51.861Z,99.99
2019-01-11T08:35:51.873Z,99.99
2019-01-11T08:36:51.852Z,99.99
2019-01-11T08:37:51.842Z,99.99
2019-01-11T08:38:51.826Z,99.99
2019-01-11T08:39:51.805Z,99.99
2019-01-11T08:40:51.840Z,99.99
2019-01-11T08:41:51.794Z,99.99
2019-01-11T08:42:51.777Z,99.99
2019-01-11T08:43:51.792Z,99.99
2019-01-11T08:44:51.747Z,99.99
2019-01-11T08:45:51.748Z,99.99
2019-01-11T08:46:51.745Z,99.99
2019-01-11T08:47:51.711Z,99.99
2019-01-11T08:48:51.718Z,99.99
2019-01-11T08:49:51.697Z,99.99
2019-01-11T08:50:51.692Z,99.99
2019-01-11T08:51:51.696Z,99.99
2019-01-11T08:52:51.693Z,99.99
2019-01-11T08:53:51.645Z,99.99
2019-01-11T08:54:51.638Z,99.99
2019-01-11T08:55:51.626Z,99.99
2019-01-11T08:56:51.619Z,99.99
2019-01-11T08:57:51.600Z,99.99
2019-01-11T08:58:51.620Z,99.99
2019-01-11T08:59:51.582Z,99.99
2019-01-11T09:00:51.571Z,99.99
2019-01-11T09:01:51.565Z,99.99
2019-01-11T09:02:51.585Z,99.99
2019-01-11T09:03:51.545Z,99.99
2019-01-11T09:04:51.550Z,99.99
2019-01-11T09:05:51.522Z,99.99
2019-01-11T09:06:51.510Z,99.99
2019-01-11T09:07:51.510Z,99.99
2019-01-11T09:08:51.517Z,99.99
2019-01-11T09:09:51.645Z,99.99
2019-01-11T09:10:51.462Z,99.99
2019-01-11T09:11:51.458Z,99.99
2019-01-11T09:12:51.479Z,99.99
2019-01-11T09:13:51.427Z,99.99
2019-01-11T09:14:51.433Z,99.99
2019-01-11T09:15:51.437Z,99.99
2019-01-11T09:16:51.389Z,99.99
2019-01-11T09:17:51.392Z,99.99
2019-01-11T09:18:51.367Z,99.99
2019-01-11T09:19:51.360Z,99.99
2019-01-11T09:20:51.392Z,99.99
2019-01-11T09:21:51.337Z,99.99
2019-01-11T09:22:51.347Z,99.99
2019-01-11T09:23:51.316Z,99.99
2019-01-11T09:24:51.300Z,99.99
2019-01-11T09:25:51.299Z,99.99
2019-01-11T09:26:51.578Z,99.99
2019-01-11T09:27:51.334Z,99.99
2019-01-11T09:28:51.329Z,99.99
2019-01-11T09:29:51.250Z,99.96
2019-01-11T09:30:51.237Z,99.99
2019-01-11T09:31:51.226Z,99.99
2019-01-11T09:32:51.214Z,99.99
2019-01-11T09:33:51.220Z,99.99
2019-01-11T09:34:51.201Z,99.99
2019-01-11T09:35:51.208Z,99.99
2019-01-11T09:36:51.172Z,99.99
2019-01-11T09:37:51.195Z,99.99
2019-01-11T09:38:51.176Z,99.99
2019-01-11T09:39:51.153Z,99.99
2019-01-11T09:40:51.136Z,99.99
2019-01-11T09:41:51.116Z,99.99
2019-01-11T09:42:51.145Z,99.99
2019-01-11T09:43:51.219Z,99.99
2019-01-11T09:44:51.113Z,99.99
2019-01-11T09:45:51.092Z,99.99
2019-01-11T09:46:51.073Z,99.99
2019-01-11T09:47:51.053Z,99.99
2019-01-11T09:48:51.117Z,99.99
2019-01-11T09:49:51.041Z,99.99
2019-01-11T09:50:51.040Z,99.99
2019-01-11T09:51:51.009Z,99.99
2019-01-11T09:52:51.016Z,99.92
2019-01-11T09:53:50.988Z,99.99
2019-01-11T09:54:51.013Z,99.92
2019-01-11T09:55:50.961Z,99.98
2019-01-11T09:56:50.955Z,99.98
2019-01-11T09:57:50.946Z,99.87
2019-01-11T09:58:50.933Z,99.99
2019-01-11T09:59:50.913Z,99.99
2019-01-11T10:00:50.937Z,99.99
2019-01-11T10:01:50.918Z,99.99
2019-01-11T10:02:50.932Z,99.99
2019-01-11T10:03:50.878Z,99.99
2019-01-11T10:04:50.869Z,99.99
2019-01-11T10:05:50.989Z,99.99
2019-01-11T10:06:50.845Z,99.99
2019-01-11T10:07:50.867Z,99.99
2019-01-11T10:08:51.050Z,99.99
2019-01-11T10:09:50.929Z,99.99
2019-01-11T10:10:50.793Z,99.99
2019-01-11T10:11:50.788Z,99.99
2019-01-11T10:12:50.955Z,99.99
2019-01-11T10:13:51.184Z,99.99
2019-01-11T10:14:50.798Z,99.77
2019-01-11T10:15:50.861Z,99.87
2019-01-11T10:16:50.783Z,99.87
2019-01-11T10:17:50.724Z,99.82
2019-01-11T10:18:50.736Z,99.82
2019-01-11T10:19:50.696Z,99.46
2019-01-11T10:20:51.916Z,99.46
2019-01-11T10:21:50.688Z,99.66
2019-01-11T10:22:50.680Z,99.82
2019-01-11T10:23:50.663Z,99.62
2019-01-11T10:24:50.717Z,99.72
2019-01-11T10:25:50.648Z,99.72
2019-01-11T10:26:50.661Z,99.82
2019-01-11T10:27:50.637Z,99.82
2019-01-11T10:28:50.604Z,99.82
2019-01-11T10:29:50.590Z,99.93
2019-01-11T10:30:50.583Z,99.62
2019-01-11T10:31:50.591Z,99.82
2019-01-11T10:32:50.600Z,99.82
2019-01-11T10:33:50.541Z,99.82
2019-01-11T10:34:50.547Z,99.78
2019-01-11T10:35:50.525Z,99.82
2019-01-11T10:36:50.510Z,99.62
2019-01-11T10:37:50.513Z,99.82
2019-01-11T10:38:50.517Z,99.99
2019-01-11T10:39:50.480Z,99.99
2019-01-11T10:40:50.475Z,99.99
2019-01-11T10:41:50.464Z,99.26
2019-01-11T10:42:50.480Z,99.37
2019-01-11T10:43:50.433Z,99.37
2019-01-11T10:44:50.422Z,99.26
2019-01-11T10:45:50.609Z,99.37
2019-01-11T10:46:50.406Z,99.41
2019-01-11T10:47:50.388Z,99.62
2019-01-11T10:48:50.415Z,99.57
2019-01-11T10:49:50.368Z,99.62
2019-01-11T10:50:50.358Z,99.37
2019-01-11T10:51:50.347Z,99.57
2019-01-11T10:52:50.337Z,99.57
2019-01-11T10:53:50.352Z,99.68
2019-01-11T10:54:50.327Z,99.37
2019-01-11T10:55:50.300Z,99.78
2019-01-11T10:56:50.288Z,99.78
2019-01-11T10:57:50.324Z,99.99
2019-01-11T10:58:50.268Z,99.99
2019-01-11T10:59:50.291Z,99.99
2019-01-11T11:00:50.272Z,99.99
2019-01-11T11:01:50.236Z,99.99
2019-01-11T11:02:50.250Z,99.99
2019-01-11T11:03:50.217Z,99.99
2019-01-11T11:04:50.288Z,99.99
2019-01-11T11:05:50.224Z,99.99
2019-01-11T11:06:50.204Z,99.99
2019-01-11T11:07:50.169Z,99.99
2019-01-11T11:08:50.176Z,99.99
2019-01-11T11:09:50.149Z,99.99
2019-01-11T11:10:50.164Z,99.99
2019-01-11T11:11:50.121Z,99.99
2019-01-11T11:12:50.131Z,99.99
2019-01-11T11:13:50.107Z,99.99
2019-01-11T11:14:50.128Z,99.99
2019-01-11T11:15:50.088Z,99.99
2019-01-11T11:16:50.112Z,99.99
2019-01-11T11:17:50.064Z,99.99
2019-01-11T11:18:50.076Z,99.99
2019-01-11T11:19:50.035Z,99.99
2019-01-11T11:20:50.030Z,99.99
2019-01-11T11:21:50.015Z,99.99
2019-01-11T11:22:50.031Z,99.99
2019-01-11T11:23:53.919Z,99.99
2019-01-11T11:24:50.003Z,99.99
2019-01-11T11:25:49.967Z,99.99
2019-01-11T11:26:49.967Z,99.99
2019-01-11T11:27:49.977Z,99.99
2019-01-11T11:28:49.944Z,99.99
2019-01-11T11:29:49.929Z,99.99
2019-01-11T11:30:51.029Z,99.99
2019-01-11T11:31:49.914Z,99.99
2019-01-11T11:32:49.935Z,99.99
2019-01-11T11:33:49.903Z,99.99
2019-01-11T11:34:49.869Z,99.99
2019-01-11T11:35:49.916Z,99.99
2019-01-11T11:36:49.857Z,99.99
2019-01-11T11:37:49.842Z,99.99
2019-01-11T11:38:49.876Z,99.99
2019-01-11T11:39:49.827Z,99.99
2019-01-11T11:40:49.810Z,99.99
2019-01-11T11:41:50.433Z,99.99
2019-01-11T11:42:49.797Z,99.99
2019-01-11T11:43:49.773Z,99.99
2019-01-11T11:44:49.785Z,99.99
2019-01-11T11:45:49.771Z,99.99
2019-01-11T11:46:49.758Z,99.99
2019-01-11T11:47:49.743Z,99.99
2019-01-11T11:48:49.726Z,99.99
2019-01-11T11:49:49.709Z,99.99
2019-01-11T11:50:49.724Z,99.99
2019-01-11T11:51:49.712Z,99.99
2019-01-11T11:52:49.681Z,99.99
2019-01-11T11:53:49.667Z,99.99
2019-01-11T11:54:49.656Z,99.99
2019-01-11T11:55:49.679Z,99.99
2019-01-11T11:56:49.637Z,99.99
2019-01-11T11:57:50.437Z,99.99
2019-01-11T11:58:56.615Z,99.99
2019-01-11T11:59:49.604Z,99.99
2019-01-11T12:00:49.636Z,99.99
2019-01-11T12:01:52.442Z,99.99
2019-01-11T12:02:49.578Z,99.99
2019-01-11T12:03:49.573Z,99.99
2019-01-11T12:04:49.552Z,99.99
2019-01-11T12:05:49.531Z,99.99
2019-01-11T12:06:49.529Z,99.99
2019-01-11T12:07:49.509Z,99.99
2019-01-11T12:08:49.529Z,99.99
2019-01-11T12:09:49.521Z,99.99
2019-01-11T12:10:49.483Z,99.99
2019-01-11T12:11:49.488Z,99.99
2019-01-11T12:12:49.448Z,99.99
2019-01-11T12:13:50.443Z,99.99
2019-01-11T12:14:49.438Z,99.99
2019-01-11T12:15:49.456Z,99.99
2019-01-11T12:16:49.409Z,99.99
2019-01-11T12:17:49.386Z,99.99
2019-01-11T12:18:49.387Z,99.99
2019-01-11T12:19:49.374Z,99.99
2019-01-11T12:20:49.395Z,99.99
2019-01-11T12:21:49.420Z,99.99
2019-01-11T12:22:49.338Z,99.99
2019-01-11T12:23:49.375Z,99.99
2019-01-11T12:24:49.320Z,99.99
2019-01-11T12:25:49.373Z,99.99
2019-01-11T12:26:49.300Z,99.99
2019-01-11T12:27:49.721Z,99.99
2019-01-11T12:28:49.276Z,99.99
2019-01-11T12:29:49.271Z,99.99
2019-01-11T12:30:49.281Z,99.99
2019-01-11T12:31:49.267Z,99.99
2019-01-11T12:32:49.234Z,99.99
2019-01-11T12:33:49.237Z,99.99
2019-01-11T12:34:49.217Z,99.99
2019-01-11T12:35:49.192Z,99.99
2019-01-11T12:36:49.234Z,99.99
2019-01-11T12:37:49.270Z,99.99
2019-01-11T12:38:49.157Z,99.99
2019-01-11T12:39:49.177Z,99.99
2019-01-11T12:40:49.136Z,99.99
2019-01-11T12:41:49.151Z,99.99
2019-01-11T12:42:49.159Z,99.99
2019-01-11T12:43:49.897Z,99.99
2019-01-11T12:44:49.100Z,99.99
2019-01-11T12:45:49.106Z,99.99
2019-01-11T12:46:49.065Z,99.99
2019-01-11T12:47:49.096Z,99.99
2019-01-11T12:48:49.110Z,99.99
2019-01-11T12:49:49.034Z,99.99
2019-01-11T12:50:49.054Z,99.99
2019-01-11T12:51:53.997Z,99.99
2019-01-11T12:52:49.995Z,99.99